createdAt,value
2019-04-23T00:01:07.918Z,9.60
2019-04-23T00:03:34.428Z,9.85
2019-04-23T00:06:15.150Z,9.81
2019-04-23T00:08:55.868Z,9.44
2019-04-23T00:11:13.559Z,9.04
2019-04-23T00:13:51.983Z,9.17
2019-04-23T00:16:21.560Z,9.61
2019-04-23T00:18:49.476Z,9.94
2019-04-23T00:21:31.872Z,10.22
2019-04-23T00:24:28.429Z,10.40
2019-04-23T00:31:40.869Z,10.10
2019-04-23T00:34:16.064Z,9.62
2019-04-23T00:36:44.556Z,9.41
2019-04-23T00:39:20.020Z,9.42
2019-04-23T00:41:54.630Z,9.26
2019-04-23T00:44:32.429Z,9.47
2019-04-23T00:46:54.629Z,9.40
2019-04-23T00:49:30.942Z,8.99
2019-04-23T00:52:09.458Z,8.81
2019-04-23T00:54:39.280Z,8.69
2019-04-23T00:57:18.502Z,8.68
2019-04-23T00:59:53.700Z,8.92
2019-04-23T01:02:16.761Z,9.24
2019-04-23T01:04:56.195Z,8.95
2019-04-23T01:07:30.456Z,8.68
2019-04-23T01:10:10.608Z,8.63
2019-04-23T01:15:10.294Z,8.78
2019-04-23T01:17:55.978Z,8.62
2019-04-23T01:20:22.606Z,8.57
2019-04-23T01:22:37.889Z,8.59
2019-04-23T01:25:24.449Z,8.53
2019-04-23T01:28:13.739Z,8.45
2019-04-23T01:30:59.250Z,8.60
2019-04-23T01:36:10.763Z,9.12
2019-04-23T01:38:35.207Z,9.01
2019-04-23T01:41:06.132Z,8.33
2019-04-23T01:46:09.866Z,8.14
2019-04-23T01:48:47.121Z,8.31
2019-04-23T01:51:09.588Z,8.25
2019-04-23T01:54:06.949Z,8.55
2019-04-23T01:56:24.821Z,8.75
2019-04-23T01:58:59.225Z,8.96
2019-04-23T02:01:47.043Z,8.80
2019-04-23T02:04:03.604Z,8.23
2019-04-23T02:06:31.433Z,8.05
2019-04-23T02:09:07.866Z,7.96
2019-04-23T02:11:47.439Z,8.04
2019-04-23T02:14:18.369Z,7.98
2019-04-23T02:16:50.326Z,8.01
2019-04-23T02:19:23.735Z,8.12
2019-04-23T02:22:06.574Z,8.30
2019-04-23T02:24:41.412Z,8.24
2019-04-23T02:27:11.966Z,8.35
2019-04-23T02:35:17.272Z,8.38
2019-04-23T02:37:47.730Z,8.47
2019-04-23T02:42:49.945Z,8.20
2019-04-23T02:45:09.463Z,8.04
2019-04-23T02:47:54.917Z,8.11
2019-04-23T02:50:32.927Z,7.97
2019-04-23T02:52:56.117Z,8.26
2019-04-23T02:55:29.566Z,8.45
2019-04-23T03:00:56.849Z,8.11
2019-04-23T03:05:45.561Z,8.29
2019-04-23T03:08:06.243Z,8.19
2019-04-23T03:13:29.324Z,8.38
2019-04-23T03:21:27.010Z,9.05
2019-04-23T03:24:01.618Z,9.24
2019-04-23T03:27:01.015Z,9.85
2019-04-23T03:39:52.440Z,10.09
2019-04-23T03:47:18.373Z,10.41
2019-04-23T03:50:11.518Z,11.07
2019-04-23T04:00:04.032Z,9.96
2019-04-23T04:05:04.059Z,9.91
2019-04-23T04:07:46.957Z,9.87
2019-04-23T04:10:09.090Z,9.99
2019-04-23T04:12:39.804Z,10.05
2019-04-23T04:18:03.830Z,9.96
2019-04-23T04:20:33.088Z,10.00
2019-04-23T04:23:07.767Z,10.19
2019-04-23T04:25:33.658Z,10.41
2019-04-23T04:33:41.443Z,11.24
2019-04-23T04:36:00.739Z,10.99
2019-04-23T04:41:04.265Z,11.44
2019-04-23T04:43:41.669Z,11.09
2019-04-23T04:46:27.482Z,11.14
2019-04-23T04:48:40.192Z,11.24
2019-04-23T04:59:00.270Z,11.60
2019-04-23T05:01:22.303Z,11.77
2019-04-23T05:03:54.867Z,11.57
2019-04-23T05:06:39.120Z,11.69
2019-04-23T05:09:19.509Z,11.77
2019-04-23T05:11:45.795Z,11.79
2019-04-23T05:14:05.883Z,11.89
2019-04-23T05:16:47.263Z,12.09
2019-04-23T05:20:02.049Z,12.02
2019-04-23T05:21:54.325Z,12.21
2019-04-23T05:24:31.840Z,12.26
2019-04-23T05:26:56.903Z,12.30
2019-04-23T05:29:27.605Z,12.58
2019-04-23T05:31:59.325Z,12.44
2019-04-23T05:34:36.153Z,12.44
2019-04-23T05:37:04.985Z,12.79
2019-04-23T05:39:44.525Z,12.71
2019-04-23T05:42:13.715Z,12.98
2019-04-23T05:44:50.395Z,13.00
2019-04-23T05:47:20.331Z,12.93
2019-04-23T05:49:51.760Z,13.29
2019-04-23T05:52:32.678Z,13.38
2019-04-23T05:55:01.542Z,13.77
2019-04-23T05:57:34.595Z,13.24
2019-04-23T06:00:13.863Z,13.27
2019-04-23T06:02:48.595Z,13.54
2019-04-23T06:05:22.474Z,13.97
2019-04-23T06:08:01.205Z,14.37
2019-04-23T06:10:29.026Z,14.52
2019-04-23T06:12:57.739Z,14.46
2019-04-23T06:15:32.441Z,14.40
2019-04-23T06:18:12.488Z,14.60
2019-04-23T06:20:50.328Z,14.56
2019-04-23T06:23:25.021Z,14.38
2019-04-23T06:25:57.270Z,14.46
2019-04-23T06:28:25.730Z,14.39
2019-04-23T06:33:25.951Z,14.92
2019-04-23T06:36:05.509Z,15.21
2019-04-23T06:38:54.535Z,14.94
2019-04-23T06:41:09.931Z,15.35
2019-04-23T06:43:54.672Z,15.91
2019-04-23T06:46:21.354Z,15.17
2019-04-23T06:48:47.131Z,15.27
2019-04-23T06:51:27.160Z,15.31
2019-04-23T06:53:57.804Z,15.58
2019-04-23T06:56:35.190Z,15.43
2019-04-23T06:59:06.326Z,15.76
2019-04-23T07:01:46.354Z,16.08
2019-04-23T07:04:10.629Z,16.30
2019-04-23T07:06:46.939Z,16.04
2019-04-23T07:11:51.380Z,16.06
2019-04-23T07:14:24.408Z,15.90
2019-04-23T07:16:57.067Z,16.07
2019-04-23T07:19:31.840Z,16.54
2019-04-23T07:22:09.992Z,16.46
2019-04-23T07:24:36.254Z,16.78
2019-04-23T07:27:11.735Z,16.68
2019-04-23T07:29:43.518Z,17.04
2019-04-23T07:32:11.120Z,17.33
2019-04-23T07:34:55.299Z,17.54
2019-04-23T07:37:22.962Z,17.39
2019-04-23T07:40:21.496Z,17.40
2019-04-23T07:42:39.106Z,17.48
2019-04-23T07:45:26.084Z,17.51
2019-04-23T07:50:46.032Z,16.83
2019-04-23T07:55:58.607Z,17.22
2019-04-23T07:58:27.329Z,17.64
2019-04-23T08:03:30.687Z,17.72
2019-04-23T08:06:00.572Z,17.73
2019-04-23T08:08:36.431Z,17.74
2019-04-23T08:11:33.140Z,17.90
2019-04-23T08:13:55.635Z,17.85
2019-04-23T08:16:28.176Z,17.91
2019-04-23T08:18:55.635Z,17.88
2019-04-23T08:21:25.766Z,17.86
2019-04-23T08:24:06.550Z,17.72
2019-04-23T08:26:54.413Z,17.84
2019-04-23T08:29:25.113Z,17.96
2019-04-23T08:37:08.712Z,17.65
2019-04-23T08:45:07.529Z,17.96
2019-04-23T08:47:52.500Z,17.92
2019-04-23T08:50:15.398Z,17.92
2019-04-23T08:52:45.924Z,18.13
2019-04-23T08:55:21.121Z,18.14
2019-04-23T08:57:52.060Z,18.00
2019-04-23T09:00:25.711Z,18.45
2019-04-23T09:03:00.632Z,18.35
2019-04-23T09:05:38.858Z,18.19
2019-04-23T09:08:25.273Z,18.31
2019-04-23T09:10:50.093Z,18.31
2019-04-23T09:13:39.977Z,18.46
2019-04-23T09:15:51.091Z,18.62
2019-04-23T09:18:35.173Z,18.32
2019-04-23T09:20:47.973Z,18.55
2019-04-23T09:25:57.822Z,18.76
2019-04-23T09:28:39.941Z,18.37
2019-04-23T09:31:11.517Z,17.91
2019-04-23T09:36:25.515Z,18.13
2019-04-23T09:39:01.332Z,18.36
2019-04-23T09:41:39.909Z,18.41
2019-04-23T09:49:44.373Z,18.49
2019-04-23T09:52:14.676Z,18.66
2019-04-23T09:55:05.996Z,18.63
2019-04-23T09:57:17.146Z,18.85
2019-04-23T09:59:52.349Z,18.95
2019-04-23T10:02:19.389Z,18.95
2019-04-23T10:04:48.297Z,18.62
2019-04-23T10:07:21.031Z,18.66
2019-04-23T10:09:40.637Z,18.53
2019-04-23T10:12:13.168Z,18.39
2019-04-23T10:14:55.113Z,18.52
2019-04-23T10:17:19.929Z,18.54
2019-04-23T10:19:53.002Z,18.47
2019-04-23T10:22:25.158Z,18.57
2019-04-23T10:24:59.419Z,18.79
2019-04-23T10:27:32.518Z,18.89
2019-04-23T10:30:06.106Z,18.93
2019-04-23T10:32:37.800Z,18.72
2019-04-23T10:35:22.315Z,18.74
2019-04-23T10:37:52.948Z,18.74
2019-04-23T10:40:25.483Z,18.58
2019-04-23T10:42:53.769Z,18.37
2019-04-23T10:45:47.926Z,18.62
2019-04-23T10:48:49.483Z,18.64
2019-04-23T10:51:28.719Z,18.82
2019-04-23T10:54:10.035Z,18.77
2019-04-23T10:56:36.117Z,18.76
2019-04-23T10:59:06.111Z,18.63
2019-04-23T11:01:35.873Z,18.64
2019-04-23T11:04:32.963Z,18.85
2019-04-23T11:12:24.157Z,18.84
2019-04-23T11:14:52.278Z,19.06
2019-04-23T11:17:32.979Z,19.21
2019-04-23T11:20:09.690Z,19.17
2019-04-23T11:25:15.903Z,19.02
2019-04-23T11:27:36.239Z,19.03
2019-04-23T11:30:20.130Z,19.00
2019-04-23T11:32:55.564Z,18.94
2019-04-23T11:35:33.991Z,19.05
2019-04-23T11:40:35.647Z,19.01
2019-04-23T11:43:22.745Z,18.90
2019-04-23T11:53:39.094Z,19.03
2019-04-23T11:56:02.793Z,18.95
2019-04-23T11:58:39.257Z,18.83
2019-04-23T12:01:38.538Z,18.88
2019-04-23T12:06:54.371Z,18.86
2019-04-23T12:09:53.835Z,18.85
2019-04-23T12:12:17.161Z,19.02
2019-04-23T12:14:47.968Z,18.97
2019-04-23T12:17:26.008Z,19.04
2019-04-23T12:20:03.354Z,19.19
2019-04-23T12:22:53.239Z,19.29
2019-04-23T12:25:32.794Z,19.37
2019-04-23T12:27:39.827Z,19.42
2019-04-23T12:30:27.760Z,19.21
2019-04-23T12:33:12.989Z,18.99
2019-04-23T12:35:25.696Z,18.94
2019-04-23T12:38:17.205Z,18.78
2019-04-23T12:53:32.052Z,18.98
2019-04-23T12:56:03.743Z,19.03
2019-04-23T12:58:40.098Z,19.04
2019-04-23T13:01:05.345Z,18.97
2019-04-23T13:03:45.814Z,19.03
2019-04-23T13:06:10.326Z,19.07
2019-04-23T13:11:23.634Z,19.10
2019-04-23T13:14:00.412Z,18.96
2019-04-23T13:16:39.897Z,18.89
2019-04-23T13:18:58.157Z,18.90
2019-04-23T13:21:51.780Z,18.86
2019-04-23T13:24:11.465Z,18.79
2019-04-23T13:26:37.965Z,18.73
2019-04-23T13:29:18.840Z,18.87
2019-04-23T13:31:48.221Z,18.84
2019-04-23T13:34:22.562Z,19.06
2019-04-23T13:36:51.501Z,19.17
2019-04-23T13:39:38.903Z,19.02
2019-04-23T13:42:06.993Z,18.78
2019-04-23T13:44:42.400Z,18.73
2019-04-23T13:47:25.034Z,18.72
2019-04-23T13:49:51.170Z,18.78
2019-04-23T13:52:43.046Z,18.78
2019-04-23T13:55:04.348Z,18.75
2019-04-23T13:59:55.949Z,18.92
2019-04-23T14:02:37.201Z,18.85
2019-04-23T14:05:14.165Z,18.78
2019-04-23T14:07:52.591Z,18.70
2019-04-23T14:10:36.645Z,18.65
2019-04-23T14:13:10.508Z,18.65
2019-04-23T14:15:42.639Z,18.64
2019-04-23T14:18:36.752Z,18.59
2019-04-23T14:20:34.911Z,18.63
2019-04-23T14:23:13.012Z,18.58
2019-04-23T14:25:51.732Z,18.60
2019-04-23T14:30:57.471Z,18.59
2019-04-23T14:33:30.445Z,18.60
2019-04-23T14:38:40.093Z,18.58
2019-04-23T14:41:09.611Z,18.58
2019-04-23T14:54:12.982Z,18.34
2019-04-23T14:56:39.512Z,18.29
2019-04-23T14:59:07.783Z,18.28
2019-04-23T15:04:11.035Z,18.23
2019-04-23T15:12:02.059Z,18.07
2019-04-23T15:14:38.031Z,18.11
2019-04-23T15:25:15.345Z,17.95
2019-04-23T15:29:48.151Z,17.91
2019-04-23T15:32:39.273Z,17.94
2019-04-23T15:35:18.395Z,17.90
2019-04-23T15:40:18.276Z,17.64
2019-04-23T15:42:52.096Z,17.62
2019-04-23T15:45:15.113Z,17.53
2019-04-23T15:48:00.488Z,17.46
2019-04-23T15:50:27.124Z,17.39
2019-04-23T15:52:56.501Z,17.45
2019-04-23T15:55:27.571Z,17.33
2019-04-23T16:00:38.834Z,17.22
2019-04-23T16:02:44.400Z,17.18
2019-04-23T16:05:18.457Z,17.17
2019-04-23T16:08:12.620Z,17.10
2019-04-23T16:10:54.714Z,16.97
2019-04-23T16:13:31.138Z,17.07
2019-04-23T16:16:03.390Z,17.10
2019-04-23T16:18:47.896Z,17.08
2019-04-23T16:21:26.846Z,17.05
2019-04-23T16:23:42.224Z,17.00
2019-04-23T16:26:17.328Z,16.93
2019-04-23T16:29:06.630Z,16.75
2019-04-23T16:31:33.505Z,16.63
2019-04-23T16:34:14.129Z,16.63
2019-04-23T16:36:32.520Z,16.57
2019-04-23T16:39:10.527Z,16.41
2019-04-23T16:41:51.979Z,16.30
2019-04-23T16:44:24.183Z,16.19
2019-04-23T16:49:24.865Z,16.07
2019-04-23T16:51:53.919Z,16.00
2019-04-23T16:54:32.916Z,15.88
2019-04-23T16:59:36.531Z,15.95
2019-04-23T17:02:17.501Z,15.82
2019-04-23T17:07:06.901Z,15.83
2019-04-23T17:09:51.207Z,15.79
2019-04-23T17:12:35.542Z,15.91
2019-04-23T17:14:57.252Z,15.88
2019-04-23T17:17:19.147Z,15.79
2019-04-23T17:20:02.658Z,15.71
2019-04-23T17:22:33.865Z,15.63
2019-04-23T17:25:15.241Z,15.73
2019-04-23T17:27:51.129Z,15.87
2019-04-23T17:30:11.490Z,15.88
2019-04-23T17:32:55.875Z,15.81
2019-04-23T17:35:24.389Z,15.74
2019-04-23T17:38:00.421Z,15.61
2019-04-23T17:40:24.577Z,15.62
2019-04-23T17:43:05.856Z,15.42
2019-04-23T17:45:35.589Z,15.32
2019-04-23T17:48:15.794Z,15.25
2019-04-23T17:50:56.782Z,15.16
2019-04-23T17:53:29.716Z,15.09
2019-04-23T17:58:43.996Z,15.33
2019-04-23T18:06:30.038Z,16.04
2019-04-23T18:09:00.525Z,16.27
2019-04-23T18:11:40.138Z,16.37
2019-04-23T18:14:03.884Z,16.45
2019-04-23T18:16:41.073Z,16.22
2019-04-23T18:22:01.807Z,16.17
2019-04-23T18:24:23.225Z,16.24
2019-04-23T18:27:00.984Z,16.35
2019-04-23T18:32:11.544Z,16.17
2019-04-23T18:34:53.882Z,15.95
2019-04-23T18:37:19.339Z,15.87
2019-04-23T18:42:25.768Z,15.61
2019-04-23T18:50:22.965Z,15.17
2019-04-23T18:55:48.761Z,15.03
2019-04-23T18:58:06.027Z,15.13
2019-04-23T19:00:53.264Z,14.51
2019-04-23T19:03:25.548Z,14.36
2019-04-23T19:06:18.665Z,14.23
2019-04-23T19:14:18.737Z,14.42
2019-04-23T19:16:54.494Z,14.27
2019-04-23T19:19:20.135Z,14.23
2019-04-23T19:22:12.415Z,14.15
2019-04-23T19:24:28.558Z,14.23
2019-04-23T19:34:39.356Z,14.08
2019-04-23T19:37:44.440Z,13.98
2019-04-23T19:39:45.345Z,14.24
2019-04-23T19:42:44.782Z,14.29
2019-04-23T19:44:51.179Z,14.15
2019-04-23T19:49:55.164Z,13.92
2019-04-23T19:52:51.819Z,14.31
2019-04-23T19:55:21.127Z,14.29
2019-04-23T19:57:45.526Z,14.29
2019-04-23T20:00:13.071Z,14.37
2019-04-23T20:03:03.246Z,14.33
2019-04-23T20:05:41.378Z,14.32
2019-04-23T20:08:08.718Z,14.18
2019-04-23T20:10:30.074Z,14.38
2019-04-23T20:12:54.574Z,14.27
2019-04-23T20:15:41.132Z,14.66
2019-04-23T20:18:00.413Z,14.62
2019-04-23T20:20:45.426Z,14.72
2019-04-23T20:23:26.527Z,14.43
2019-04-23T20:26:12.189Z,14.28
2019-04-23T20:28:48.898Z,13.92
2019-04-23T20:33:59.956Z,13.80
2019-04-23T20:36:26.128Z,13.65
2019-04-23T20:38:54.830Z,13.52
2019-04-23T20:41:32.521Z,13.31
2019-04-23T20:44:06.275Z,13.57
2019-04-23T20:46:40.165Z,13.79
2019-04-23T20:49:00.511Z,13.81
2019-04-23T20:51:47.170Z,14.01
2019-04-23T20:54:12.356Z,13.97
2019-04-23T20:56:56.328Z,14.11
2019-04-23T20:59:16.185Z,14.02
2019-04-23T21:02:06.280Z,13.96
2019-04-23T21:04:29.755Z,13.67
2019-04-23T21:07:12.106Z,13.54
2019-04-23T21:09:51.547Z,13.66
2019-04-23T21:12:15.924Z,13.72
2019-04-23T21:17:20.772Z,13.30
2019-04-23T21:19:59.801Z,13.14
2019-04-23T21:22:20.514Z,13.15
2019-04-23T21:24:51.540Z,13.23
2019-04-23T21:30:08.563Z,13.19
2019-04-23T21:32:53.808Z,13.33
2019-04-23T21:35:43.006Z,13.31
2019-04-23T21:37:54.227Z,13.17
2019-04-23T21:43:36.090Z,13.46
2019-04-23T21:45:59.993Z,13.52
2019-04-23T21:48:27.533Z,13.51
2019-04-23T21:50:58.009Z,13.37
2019-04-23T21:53:25.247Z,13.40
2019-04-23T21:56:06.988Z,13.31
2019-04-23T21:58:46.549Z,12.74
2019-04-23T22:01:21.218Z,12.74
2019-04-23T22:06:31.517Z,12.74
2019-04-23T22:08:57.732Z,12.75
2019-04-23T22:11:53.734Z,12.65
2019-04-23T22:16:41.021Z,12.71
2019-04-23T22:19:15.473Z,12.57
2019-04-23T22:26:57.680Z,12.30
2019-04-23T22:31:51.122Z,12.06
2019-04-23T22:34:34.070Z,11.97
2019-04-23T22:39:39.902Z,11.87
2019-04-23T22:44:59.097Z,11.72
2019-04-23T22:47:14.088Z,11.77
2019-04-23T22:55:02.293Z,11.81
2019-04-23T22:57:56.681Z,11.74
2019-04-23T23:00:14.608Z,11.77
2019-04-23T23:03:06.429Z,11.66
2019-04-23T23:05:39.421Z,11.53
2019-04-23T23:10:38.197Z,11.45
2019-04-23T23:13:12.041Z,11.45
2019-04-23T23:15:51.411Z,11.54
2019-04-23T23:18:17.714Z,11.58
2019-04-23T23:20:57.596Z,11.52
2019-04-23T23:23:21.442Z,11.50
2019-04-23T23:33:40.356Z,11.34
2019-04-23T23:36:17.981Z,11.34
2019-04-23T23:38:50.802Z,11.32
2019-04-23T23:41:19.905Z,11.28
2019-04-23T23:44:06.075Z,11.16
2019-04-23T23:46:29.613Z,11.14
2019-04-23T23:48:56.971Z,11.15
2019-04-23T23:51:29.156Z,11.13
2019-04-23T23:54:08.754Z,11.05
2019-04-23T23:59:10.674Z,10.96
